Time;durP1;ratioP1;P1;durP2;ratioP2;P2;SDS_P1;SDS_P2;PMS_P1;PMS_P2;Temp;Humidity;BMP_temperature;BMP_pressure;BME280_temperature;BME280_humidity;BME280_pressure;Samples;Min_cycle;Max_cycle;Signal;HPM_P1;HPM_P2
2022/12/30 00:01:40;;;;;;;7.47;2.22;;;;;;;8.19;67.91;100921.06;5029991;28;20476;-69
2022/12/30 00:04:05;;;;;;;12.80;2.67;;;;;;;8.18;67.66;100924.09;5028990;28;20037;-69
2022/12/30 00:06:30;;;;;;;10.27;2.60;;;;;;;8.14;67.44;100933.94;5029953;28;20033;-69
2022/12/30 00:08:57;;;;;;;8.23;2.63;;;;;;;8.12;67.66;100923.09;5029386;28;20036;-69
2022/12/30 00:11:28;;;;;;;13.25;2.83;;;;;;;8.12;67.56;100935.00;5030073;28;20076;-69
2022/12/30 00:33:58;;;;;;;10.18;3.30;;;;;;;8.09;67.56;100962.25;5030841;28;20048;-69
2022/12/30 00:36:25;;;;;;;12.55;3.38;;;;;;;8.07;67.82;100956.13;5033459;28;20100;-69
2022/12/30 00:38:52;;;;;;;13.63;3.25;;;;;;;8.04;67.77;100946.38;5032585;28;20030;-69
2022/12/30 00:44:01;;;;;;;12.60;2.90;;;;;;;8.00;67.85;100950.69;5017993;28;20048;-69
2022/12/30 00:46:26;;;;;;;10.25;2.83;;;;;;;7.99;67.92;100954.53;5024596;28;20029;-69
2022/12/30 00:57:04;;;;;;;14.60;3.10;;;;;;;8.01;67.60;100952.38;5025068;28;20566;-69
2022/12/30 00:59:29;;;;;;;12.52;2.92;;;;;;;7.98;67.77;100946.50;5025157;28;20029;-69
2022/12/30 01:01:54;;;;;;;11.52;3.17;;;;;;;7.99;68.70;100953.69;5028278;28;20033;-69
2022/12/30 01:04:20;;;;;;;14.55;3.28;;;;;;;7.97;67.63;100953.91;5025179;28;20274;-69
2022/12/30 01:06:45;;;;;;;12.63;3.20;;;;;;;7.97;67.86;100961.38;5015497;28;20045;-69
2022/12/30 01:09:10;;;;;;;16.60;3.90;;;;;;;7.96;68.40;100966.06;5028411;28;20088;-69
2022/12/30 01:11:36;;;;;;;15.43;3.72;;;;;;;7.94;67.95;100964.59;5032780;28;20030;-69
2022/12/30 01:14:01;;;;;;;12.45;3.33;;;;;;;7.88;67.83;100963.63;5031826;28;20471;-69
2022/12/30 01:16:26;;;;;;;12.45;3.40;;;;;;;7.89;68.09;100962.53;5032505;28;20151;-69
2022/12/30 01:18:52;;;;;;;15.55;3.17;;;;;;;7.90;68.43;100966.13;5032666;28;20044;-69
2022/12/30 01:21:17;;;;;;;16.13;3.55;;;;;;;7.87;68.21;100975.75;5031726;28;20064;-69
2022/12/30 01:23:45;;;;;;;13.10;3.20;;;;;;;7.86;68.39;100961.09;5030296;28;20030;-69
2022/12/30 01:26:10;;;;;;;15.80;3.53;;;;;;;7.85;68.20;100961.31;5032312;28;20033;-69
2022/12/30 01:28:37;;;;;;;11.88;3.50;;;;;;;7.81;68.29;100957.31;5030921;28;20051;-69
2022/12/30 01:31:08;;;;;;;12.77;3.55;;;;;;;7.82;68.41;100970.06;5032043;28;20056;-69
2022/12/30 01:33:35;;;;;;;15.60;3.63;;;;;;;7.79;68.75;100971.38;5031623;28;20071;-69
2022/12/30 01:36:01;;;;;;;14.10;3.40;;;;;;;7.82;68.75;100975.59;5032441;28;20029;-69
2022/12/30 01:38:29;;;;;;;16.92;3.35;;;;;;;7.81;68.75;100980.28;5031051;28;20037;-69
2022/12/30 01:40:54;;;;;;;14.30;3.25;;;;;;;7.79;69.28;100976.06;5028491;28;20491;-69
2022/12/30 01:43:19;;;;;;;16.73;3.50;;;;;;;7.81;68.21;100990.47;5031018;28;20025;-69
2022/12/30 01:45:48;;;;;;;15.88;3.72;;;;;;;7.79;68.15;100984.38;5032136;28;20025;-69
2022/12/30 01:48:27;;;;;;;14.27;3.35;;;;;;;7.79;68.61;100987.13;5011633;28;20034;-69
2022/12/30 01:50:55;;;;;;;16.42;3.78;;;;;;;7.77;68.34;100994.78;5012065;28;20050;-69
2022/12/30 01:53:28;;;;;;;13.52;3.10;;;;;;;7.77;68.55;101001.16;5012082;28;20066;-68
2022/12/30 01:56:03;;;;;;;12.32;2.85;;;;;;;7.78;68.24;101005.63;5011428;28;20026;-69
2022/12/30 01:58:33;;;;;;;15.18;3.42;;;;;;;7.77;68.73;101005.84;5029304;28;20359;-70
2022/12/30 02:00:58;;;;;;;15.18;3.60;;;;;;;7.77;68.87;101000.31;5017039;28;20703;-70
2022/12/30 02:03:29;;;;;;;12.68;3.20;;;;;;;7.76;68.24;101007.75;5016954;28;20460;-69
2022/12/30 02:05:54;;;;;;;10.63;3.10;;;;;;;7.78;68.29;101019.44;5031812;28;20056;-69
2022/12/30 02:08:20;;;;;;;14.85;3.47;;;;;;;7.75;68.76;101008.00;5031475;28;20575;-69
2022/12/30 02:10:52;;;;;;;15.32;3.65;;;;;;;7.72;69.21;100989.13;5031086;28;20069;-68
2022/12/30 02:13:19;;;;;;;12.82;3.42;;;;;;;7.71;67.98;100996.56;5020358;28;20494;-69
2022/12/30 02:16:04;;;;;;;13.20;3.83;;;;;;;7.75;68.50;100995.03;5011181;28;20496;-69
2022/12/30 02:18:41;;;;;;;11.98;3.53;;;;;;;7.70;68.88;100978.28;5011798;28;20034;-70
2022/12/30 02:21:40;;;;;;;12.60;3.25;;;;;;;7.74;68.76;100974.00;5023486;28;20418;-69
2022/12/30 02:24:30;;;;;;;14.82;3.10;;;;;;;7.70;69.28;100972.75;5022846;28;20037;-69
2022/12/30 02:27:17;;;;;;;11.85;3.17;;;;;;;7.67;68.51;100973.25;5031346;28;20033;-69
2022/12/30 02:30:04;;;;;;;14.15;3.33;;;;;;;7.74;69.01;100974.00;5029741;28;20420;-70
2022/12/30 02:32:32;;;;;;;10.80;2.97;;;;;;;7.69;68.47;100959.19;5031286;28;20044;-69
2022/12/30 02:35:00;;;;;;;11.88;2.83;;;;;;;7.67;68.95;100961.34;5030878;28;20032;-70
2022/12/30 02:37:40;;;;;;;17.10;3.17;;;;;;;7.66;68.66;100956.88;5030055;28;20099;-69
2022/12/30 02:40:16;;;;;;;14.30;3.63;;;;;;;7.62;69.00;100960.13;5029959;28;20473;-69
2022/12/30 02:45:46;;;;;;;16.20;3.33;;;;;;;7.52;68.63;100954.28;5030682;28;20052;-70
2022/12/30 02:48:19;;;;;;;16.70;3.30;;;;;;;7.56;68.93;100949.16;5030563;28;20104;-69
2022/12/30 02:53:35;;;;;;;12.52;3.30;;;;;;;7.52;68.42;100948.75;5030922;28;20048;-69
2022/12/30 02:56:01;;;;;;;14.65;3.60;;;;;;;7.53;68.80;100941.31;5029234;28;20045;-69
2022/12/30 02:58:29;;;;;;;15.95;3.60;;;;;;;7.50;69.15;100931.56;5026373;28;20044;-70
2022/12/30 03:04:35;;;;;;;15.57;3.25;;;;;;;7.47;69.55;100931.22;5025233;28;20040;-68
2022/12/30 03:08:02;;;;;;;12.13;3.40;;;;;;;7.47;68.52;100925.69;5027596;28;20100;-69
2022/12/30 03:13:54;;;;;;;14.25;3.28;;;;;;;7.41;69.58;100929.34;5010655;28;20040;-70
2022/12/30 03:16:33;;;;;;;17.85;3.53;;;;;;;7.34;68.98;100930.25;5028558;28;20041;-69
2022/12/30 03:19:02;;;;;;;12.13;3.35;;;;;;;7.30;68.62;100933.72;5029264;28;20029;-69
2022/12/30 03:21:31;;;;;;;13.98;3.30;;;;;;;7.23;69.32;100927.41;5024064;28;20060;-69
2022/12/30 03:27:05;;;;;;;17.48;3.42;;;;;;;7.18;69.25;100925.34;5025173;28;20060;-68
2022/12/30 03:29:32;;;;;;;10.13;3.15;;;;;;;7.12;69.78;100929.03;5014254;28;20461;-69
2022/12/30 03:31:58;;;;;;;14.68;3.35;;;;;;;7.11;69.87;100930.09;5029831;28;20052;-69
2022/12/30 03:34:25;;;;;;;11.02;3.20;;;;;;;7.10;70.08;100929.25;5016372;28;20034;-69
2022/12/30 03:36:57;;;;;;;14.05;2.90;;;;;;;7.09;69.52;100918.47;5024614;28;20033;-69
2022/12/30 03:39:35;;;;;;;13.15;3.45;;;;;;;7.13;69.68;100917.75;5010763;28;20025;-69
2022/12/30 03:42:03;;;;;;;12.10;3.20;;;;;;;7.11;69.97;100914.41;5011229;28;20096;-69
2022/12/30 03:44:29;;;;;;;13.63;3.22;;;;;;;7.06;69.56;100922.50;5028477;28;20469;-69
2022/12/30 03:46:54;;;;;;;18.48;3.55;;;;;;;7.10;69.49;100917.38;5029473;28;20041;-69
2022/12/30 03:49:20;;;;;;;11.95;3.38;;;;;;;7.05;68.95;100920.00;5027718;28;20038;-69
2022/12/30 03:51:46;;;;;;;15.75;3.15;;;;;;;7.01;69.27;100918.75;5033197;28;20041;-69
2022/12/30 03:54:11;;;;;;;21.50;3.90;;;;;;;6.94;69.42;100929.84;5028553;28;20059;-69
2022/12/30 03:56:36;;;;;;;15.45;3.78;;;;;;;6.96;69.97;100922.22;5035770;28;20192;-70
2022/12/30 03:59:02;;;;;;;17.88;3.63;;;;;;;6.94;69.25;100924.34;5034442;28;20044;-70
2022/12/30 04:01:27;;;;;;;10.02;3.33;;;;;;;6.93;69.30;100930.09;5035291;28;20057;-69
2022/12/30 04:03:52;;;;;;;14.45;3.13;;;;;;;6.96;69.52;100940.69;5034932;28;20025;-69
2022/12/30 04:06:18;;;;;;;15.75;3.45;;;;;;;6.97;69.55;100923.88;5020863;28;20112;-69
2022/12/30 04:08:43;;;;;;;14.90;3.97;;;;;;;6.98;70.15;100928.31;5030124;28;20384;-69
2022/12/30 04:11:08;;;;;;;14.23;3.70;;;;;;;6.99;69.64;100938.28;5027244;28;20033;-69
2022/12/30 04:13:34;;;;;;;16.40;3.70;;;;;;;6.97;69.57;100934.91;5035576;28;20038;-69
2022/12/30 04:15:59;;;;;;;13.57;3.55;;;;;;;6.95;70.27;100926.00;5034811;28;20029;-69
2022/12/30 04:18:24;;;;;;;22.13;3.95;;;;;;;6.94;69.49;100945.56;5034388;28;20029;-69
2022/12/30 04:20:50;;;;;;;18.80;3.80;;;;;;;6.93;70.26;100939.22;5035414;28;20037;-70
2022/12/30 04:23:16;;;;;;;11.98;3.13;;;;;;;6.92;70.06;100945.81;5033494;28;20025;-70
2022/12/30 04:25:41;;;;;;;15.05;3.70;;;;;;;6.88;70.09;100947.34;5035302;28;20112;-70
2022/12/30 04:28:07;;;;;;;15.90;3.40;;;;;;;6.86;70.33;100950.28;5030447;28;20490;-69
2022/12/30 04:30:33;;;;;;;15.65;3.88;;;;;;;6.81;70.01;100938.25;5033801;28;20049;-70
2022/12/30 04:32:58;;;;;;;14.98;3.30;;;;;;;6.79;70.96;100934.88;5034258;28;20045;-70
2022/12/30 04:35:24;;;;;;;14.05;3.50;;;;;;;6.81;70.58;100935.50;5034437;28;20041;-70
2022/12/30 04:37:49;;;;;;;12.30;3.47;;;;;;;6.80;70.74;100928.31;5032723;28;20029;-70
2022/12/30 04:40:15;;;;;;;11.93;3.25;;;;;;;6.81;70.34;100921.72;5032508;28;20030;-70
2022/12/30 04:42:41;;;;;;;13.43;3.63;;;;;;;6.78;70.36;100934.03;5034757;28;20025;-71
2022/12/30 04:45:07;;;;;;;15.95;3.78;;;;;;;6.80;70.88;100933.81;5026086;28;20025;-70
2022/12/30 04:47:32;;;;;;;15.20;3.53;;;;;;;6.78;70.56;100927.69;5021836;28;20034;-70
2022/12/30 04:49:57;;;;;;;10.65;3.25;;;;;;;6.79;70.42;100923.84;5024763;28;20112;-69
2022/12/30 04:52:22;;;;;;;15.25;4.10;;;;;;;6.78;70.58;100920.25;5026367;28;20037;-70
2022/12/30 04:54:48;;;;;;;14.60;3.45;;;;;;;6.78;70.98;100931.28;5030007;28;20037;-70
2022/12/30 04:57:13;;;;;;;12.00;3.38;;;;;;;6.79;70.63;100938.47;5016728;28;20053;-70
2022/12/30 04:59:38;;;;;;;15.20;3.67;;;;;;;6.77;70.61;100924.06;5032662;28;20366;-70
2022/12/30 05:02:04;;;;;;;16.83;3.85;;;;;;;6.79;71.10;100923.84;5031232;28;20044;-70
2022/12/30 05:04:29;;;;;;;16.27;3.55;;;;;;;6.77;71.22;100917.72;5022771;28;20048;-70
2022/12/30 05:06:55;;;;;;;16.05;4.10;;;;;;;6.73;71.12;100916.47;5031287;28;20034;-70
2022/12/30 05:09:20;;;;;;;14.02;3.70;;;;;;;6.72;70.90;100912.00;5028717;28;20073;-70
2022/12/30 05:11:45;;;;;;;12.40;4.50;;;;;;;6.73;70.66;100922.84;5023073;28;20037;-70
2022/12/30 05:14:11;;;;;;;16.67;4.20;;;;;;;6.70;71.27;100905.91;5031979;28;20386;-70
2022/12/30 05:16:36;;;;;;;15.38;3.72;;;;;;;6.72;71.39;100903.75;5032055;28;20025;-70
2022/12/30 05:19:02;;;;;;;16.92;3.83;;;;;;;6.71;71.46;100908.41;5030729;28;20075;-71
2022/12/30 05:21:27;;;;;;;17.42;3.88;;;;;;;6.70;71.28;100903.97;5032345;28;20034;-71
2022/12/30 05:26:36;;;;;;;14.55;3.75;;;;;;;6.60;71.52;100901.75;5031641;28;20103;-68
2022/12/30 05:29:01;;;;;;;12.48;3.38;;;;;;;6.61;72.19;100899.84;5022165;28;20117;-69
2022/12/30 05:31:26;;;;;;;14.65;3.38;;;;;;;6.63;71.92;100908.72;5012697;28;20044;-69
2022/12/30 05:33:52;;;;;;;12.68;3.50;;;;;;;6.60;71.92;100903.63;5029037;28;20488;-68
2022/12/30 05:36:17;;;;;;;17.27;3.53;;;;;;;6.56;72.29;100911.53;5031981;28;20159;-69
2022/12/30 05:38:43;;;;;;;12.70;3.42;;;;;;;6.57;72.63;100913.22;5031878;28;20034;-70
2022/12/30 05:41:10;;;;;;;14.43;3.70;;;;;;;6.55;72.73;100909.84;5031234;28;20021;-70
2022/12/30 05:43:35;;;;;;;10.70;3.13;;;;;;;6.50;72.47;100911.59;5031907;28;20034;-70
2022/12/30 05:46:01;;;;;;;18.65;4.05;;;;;;;6.52;72.77;100902.00;5030755;28;20389;-70
2022/12/30 05:48:26;;;;;;;16.92;4.18;;;;;;;6.50;72.92;100904.16;5029735;28;20035;-69
2022/12/30 05:50:52;;;;;;;17.77;3.42;;;;;;;6.49;72.32;100899.72;5012769;28;20695;-69
2022/12/30 05:53:17;;;;;;;16.85;3.65;;;;;;;6.48;72.38;100903.53;5011808;28;20045;-70
2022/12/30 05:55:43;;;;;;;15.38;3.53;;;;;;;6.46;72.57;100902.91;5010991;28;20496;-69
2022/12/30 05:58:11;;;;;;;13.07;3.25;;;;;;;6.49;73.01;100899.72;5011943;28;20038;-69
2022/12/30 06:00:37;;;;;;;16.98;3.88;;;;;;;6.50;72.89;100895.88;5011522;28;20031;-70
2022/12/30 06:03:02;;;;;;;15.23;4.25;;;;;;;6.51;72.87;100903.09;5020013;28;20037;-70
2022/12/30 06:05:27;;;;;;;14.23;3.30;;;;;;;6.54;73.45;100902.63;5022893;28;20051;-69
2022/12/30 06:07:53;;;;;;;19.92;4.45;;;;;;;6.51;72.80;100897.56;5030108;28;20041;-70
2022/12/30 06:10:18;;;;;;;12.65;3.58;;;;;;;6.50;73.10;100895.88;5030986;28;20033;-69
2022/12/30 06:12:44;;;;;;;15.93;3.58;;;;;;;6.50;73.05;100895.88;5030802;28;20021;-69
2022/12/30 06:15:09;;;;;;;12.85;3.67;;;;;;;6.50;73.08;100892.28;5030630;28;20059;-69
2022/12/30 06:17:35;;;;;;;17.02;4.63;;;;;;;6.52;73.28;100885.47;5031103;28;20029;-69
2022/12/30 06:20:00;;;;;;;9.88;3.40;;;;;;;6.50;73.27;100879.34;5029181;28;20057;-69
2022/12/30 06:22:25;;;;;;;17.80;3.45;;;;;;;6.49;73.71;100876.81;5017910;28;20038;-69
2022/12/30 06:24:51;;;;;;;14.00;3.63;;;;;;;6.48;73.63;100875.09;5010529;28;20383;-69
2022/12/30 06:27:16;;;;;;;14.90;4.15;;;;;;;6.46;73.49;100872.59;5020211;28;20053;-69
2022/12/30 06:29:41;;;;;;;14.82;3.88;;;;;;;6.38;74.19;100870.13;5009312;28;20029;-69
2022/12/30 06:32:07;;;;;;;9.55;3.25;;;;;;;6.38;74.70;100873.72;5009700;28;20033;-69
2022/12/30 06:34:32;;;;;;;13.13;3.78;;;;;;;6.42;73.60;100873.28;5027902;28;20034;-69
2022/12/30 06:36:58;;;;;;;12.73;3.60;;;;;;;6.45;74.07;100859.88;5027614;28;20029;-69
2022/12/30 06:39:23;;;;;;;21.00;4.05;;;;;;;6.48;73.64;100875.94;5014902;28;20022;-70
2022/12/30 06:41:49;;;;;;;17.17;3.95;;;;;;;6.46;74.00;100867.06;5014527;28;20033;-69
2022/12/30 06:44:14;;;;;;;10.63;3.28;;;;;;;6.49;73.53;100857.53;5028090;28;20025;-70
2022/12/30 06:46:39;;;;;;;12.85;3.45;;;;;;;6.47;73.88;100854.97;5029025;28;20057;-70
2022/12/30 06:49:04;;;;;;;14.60;3.78;;;;;;;6.50;74.38;100843.50;5029338;28;20044;-70
2022/12/30 06:51:30;;;;;;;15.88;4.22;;;;;;;6.54;74.07;100846.66;5027414;28;20081;-70
2022/12/30 06:53:55;;;;;;;13.20;3.17;;;;;;;6.54;73.56;100835.63;5029410;28;20128;-70
2022/12/30 06:56:20;;;;;;;13.63;3.35;;;;;;;6.54;73.71;100827.34;5028231;28;20029;-70
2022/12/30 06:58:46;;;;;;;15.68;3.83;;;;;;;6.56;73.78;100822.44;5010135;28;20481;-70
2022/12/30 07:01:11;;;;;;;15.70;4.20;;;;;;;6.53;74.30;100817.38;5025442;28;20033;-69
2022/12/30 07:03:37;;;;;;;13.95;3.38;;;;;;;6.52;74.42;100804.66;5028217;28;20029;-69
2022/12/30 07:06:02;;;;;;;15.25;3.83;;;;;;;6.50;74.10;100799.38;5028313;28;20087;-69
2022/12/30 07:08:27;;;;;;;13.63;3.72;;;;;;;6.53;73.61;100803.59;5029155;28;20056;-69
2022/12/30 07:10:54;;;;;;;11.48;3.58;;;;;;;6.52;74.33;100797.22;5028735;28;20551;-70
2022/12/30 07:13:19;;;;;;;9.57;3.53;;;;;;;6.46;73.69;100789.88;5011813;28;20053;-70
2022/12/30 07:15:45;;;;;;;13.88;3.58;;;;;;;6.46;74.32;100789.03;5022823;28;20120;-70
2022/12/30 07:18:10;;;;;;;13.27;3.33;;;;;;;6.42;74.72;100782.28;5027858;28;20487;-69
2022/12/30 07:20:35;;;;;;;12.02;3.63;;;;;;;6.40;74.61;100793.53;5028842;28;20034;-70
2022/12/30 07:23:00;;;;;;;11.65;4.00;;;;;;;6.42;74.28;100796.91;5027517;28;20057;-69
2022/12/30 07:25:26;;;;;;;14.32;3.88;;;;;;;6.41;74.74;100795.25;5027295;28;20044;-70
2022/12/30 07:27:57;;;;;;;18.23;3.53;;;;;;;6.41;75.15;100784.22;5028659;28;20044;-69
2022/12/30 07:30:22;;;;;;;15.38;4.22;;;;;;;6.41;74.79;100781.44;5028483;28;20028;-70
2022/12/30 07:32:47;;;;;;;8.95;3.10;;;;;;;6.38;74.93;100776.38;5021275;28;20034;-70
2022/12/30 07:35:13;;;;;;;7.97;2.97;;;;;;;6.38;75.10;100770.88;5018604;28;20025;-69
2022/12/30 07:37:38;;;;;;;9.82;3.42;;;;;;;6.38;75.47;100766.19;5019274;28;20062;-70
2022/12/30 07:40:04;;;;;;;7.70;3.08;;;;;;;6.42;74.86;100763.84;5012134;28;20068;-69
2022/12/30 07:42:29;;;;;;;9.80;3.30;;;;;;;6.42;75.13;100755.56;5021937;28;20029;-69
2022/12/30 07:44:55;;;;;;;9.20;3.13;;;;;;;6.47;75.13;100752.94;5025481;28;20056;-71
2022/12/30 07:47:20;;;;;;;9.05;2.83;;;;;;;6.48;75.00;100753.78;5022541;28;20080;-70
2022/12/30 07:49:45;;;;;;;8.93;2.90;;;;;;;6.47;75.26;100752.94;5022433;28;20473;-72
2022/12/30 07:52:11;;;;;;;9.07;2.70;;;;;;;6.44;75.41;100739.63;5026277;28;20026;-75
2022/12/30 07:54:36;;;;;;;8.82;2.97;;;;;;;6.43;76.13;100731.59;5027139;28;20021;-75
2022/12/30 07:57:01;;;;;;;7.15;2.83;;;;;;;6.43;75.64;100726.06;5015722;28;20436;-74
2022/12/30 07:59:27;;;;;;;13.15;3.00;;;;;;;6.48;75.35;100721.53;5015380;28;20128;-75
2022/12/30 08:01:53;;;;;;;15.75;2.92;;;;;;;6.51;75.34;100712.81;5020680;28;20072;-73
2022/12/30 08:04:18;;;;;;;13.60;3.35;;;;;;;6.51;75.20;100717.50;5019069;28;20033;-72
2022/12/30 08:06:43;;;;;;;8.82;3.20;;;;;;;6.54;75.02;100708.78;5019305;28;20396;-73
2022/12/30 08:09:08;;;;;;;7.90;2.75;;;;;;;6.56;75.22;100696.44;5013301;28;20132;-75
2022/12/30 08:11:34;;;;;;;8.40;3.08;;;;;;;6.60;75.14;100697.66;5016455;28;20371;-75
2022/12/30 08:13:59;;;;;;;8.35;2.40;;;;;;;6.62;75.26;100705.69;5027507;28;20067;-76
2022/12/30 08:16:25;;;;;;;11.20;2.85;;;;;;;6.61;75.75;100702.09;5021129;28;20037;-73
2022/12/30 08:18:51;;;;;;;10.45;2.85;;;;;;;6.64;75.93;100696.13;5023411;28;20095;-72
2022/12/30 08:21:17;;;;;;;9.70;3.33;;;;;;;6.68;75.92;100702.03;5021386;28;20541;-74
2022/12/30 08:23:44;;;;;;;10.80;2.88;;;;;;;6.68;75.68;100682.72;5024261;28;20023;-71
2022/12/30 08:26:21;;;;;;;7.03;2.85;;;;;;;6.68;76.10;100696.50;5023676;28;20134;-74
2022/12/30 08:28:47;;;;;;;8.07;2.75;;;;;;;6.68;76.21;100691.00;5025497;28;20039;-75
2022/12/30 08:31:19;;;;;;;10.40;3.17;;;;;;;6.70;75.92;100691.59;5027047;28;20388;-75
2022/12/30 08:33:44;;;;;;;14.13;2.45;;;;;;;6.72;76.40;100685.84;5027354;28;20453;-74
2022/12/30 08:36:12;;;;;;;7.68;2.83;;;;;;;6.73;76.27;100680.09;5022438;28;20120;-72
2022/12/30 08:38:41;;;;;;;8.25;3.00;;;;;;;6.75;75.98;100666.91;5028119;28;20109;-72
2022/12/30 08:41:18;;;;;;;10.20;3.38;;;;;;;6.78;75.78;100676.63;5031187;28;20036;-71
2022/12/30 08:43:43;;;;;;;8.40;3.13;;;;;;;6.80;75.89;100666.22;5027592;28;20578;-70
2022/12/30 08:46:09;;;;;;;10.00;2.67;;;;;;;6.80;75.78;100669.00;5027824;28;20037;-71
2022/12/30 08:48:34;;;;;;;6.93;2.60;;;;;;;6.84;76.28;100661.94;5029960;28;20073;-74
2022/12/30 08:51:00;;;;;;;5.57;2.78;;;;;;;6.85;75.41;100655.34;5029533;28;20057;-72
2022/12/30 08:53:25;;;;;;;7.55;2.58;;;;;;;6.81;76.07;100648.59;5026238;28;20091;-74
2022/12/30 08:56:00;;;;;;;7.75;3.00;;;;;;;6.86;76.49;100649.56;5022128;28;20540;-77
2022/12/30 08:58:26;;;;;;;8.68;2.72;;;;;;;6.85;76.50;100633.25;5030933;28;20040;-72
2022/12/30 09:00:51;;;;;;;10.32;2.92;;;;;;;6.86;75.88;100624.75;5029423;28;20078;-76
2022/12/30 09:03:17;;;;;;;10.52;2.95;;;;;;;6.86;76.05;100640.44;5024672;28;20038;-72
2022/12/30 09:05:42;;;;;;;10.82;2.80;;;;;;;6.86;76.05;100635.78;5019303;28;20093;-71
2022/12/30 09:08:07;;;;;;;9.18;2.60;;;;;;;6.88;75.98;100624.53;5027016;28;20377;-72
2022/12/30 09:10:33;;;;;;;8.48;2.63;;;;;;;6.89;75.78;100606.88;5024152;28;20036;-74
2022/12/30 09:12:58;;;;;;;7.78;2.50;;;;;;;6.91;76.35;100604.72;5029719;28;20083;-75
2022/12/30 09:15:23;;;;;;;8.80;2.72;;;;;;;6.95;76.67;100608.69;5029008;28;20045;-72
2022/12/30 09:17:49;;;;;;;8.70;2.70;;;;;;;6.95;76.26;100594.88;5019780;28;20029;-69
2022/12/30 09:20:14;;;;;;;5.65;2.25;;;;;;;6.97;76.04;100603.78;5030301;28;20029;-72
2022/12/30 09:22:39;;;;;;;7.57;2.67;;;;;;;6.97;76.02;100614.81;5031084;28;20043;-69
2022/12/30 09:25:06;;;;;;;7.28;2.22;;;;;;;6.98;75.95;100599.94;5020985;28;20552;-72
2022/12/30 09:27:31;;;;;;;7.88;2.20;;;;;;;6.99;75.25;100595.25;5028452;28;20048;-72
2022/12/30 09:29:56;;;;;;;6.22;2.17;;;;;;;7.03;75.77;100588.19;5027614;28;20413;-72
2022/12/30 09:32:22;;;;;;;7.20;2.60;;;;;;;7.03;75.78;100594.56;5031585;28;20182;-71
2022/12/30 09:34:47;;;;;;;9.77;2.25;;;;;;;7.06;76.00;100599.59;5030358;28;20104;-69
2022/12/30 09:37:13;;;;;;;9.23;2.15;;;;;;;7.10;75.94;100587.00;5019678;28;20107;-71
2022/12/30 09:39:38;;;;;;;8.95;2.10;;;;;;;7.15;75.44;100586.28;5030375;28;20025;-68
2022/12/30 09:45:00;;;;;;;6.60;1.90;;;;;;;7.14;75.32;100577.19;5018183;28;22329;-67
2022/12/30 09:47:30;;;;;;;9.52;1.98;;;;;;;7.14;75.79;100568.06;5029017;28;20041;-68
2022/12/30 09:50:30;;;;;;;9.25;2.53;;;;;;;7.20;75.66;100566.28;5029630;28;20030;-68
2022/12/30 09:53:19;;;;;;;7.97;2.15;;;;;;;7.23;75.30;100557.50;5023595;28;20397;-69
2022/12/30 09:55:57;;;;;;;4.65;2.05;;;;;;;7.25;76.03;100553.44;5029605;28;20033;-70
2022/12/30 09:58:28;;;;;;;6.35;2.08;;;;;;;7.27;75.38;100540.25;5015160;28;20380;-71
2022/12/30 10:00:53;;;;;;;9.07;2.30;;;;;;;7.28;75.47;100541.09;5024508;28;20029;-71
2022/12/30 10:03:25;;;;;;;7.95;1.90;;;;;;;7.29;75.20;100548.28;5026968;28;20057;-68
2022/12/30 10:06:05;;;;;;;27.33;3.92;;;;;;;7.29;75.65;100535.31;5025812;28;20029;-69
2022/12/30 10:08:57;;;;;;;7.05;1.70;;;;;;;7.32;75.97;100522.97;5026936;28;20449;-69
2022/12/30 10:11:50;;;;;;;6.00;1.83;;;;;;;7.34;75.54;100526.31;5010759;28;20064;-70
2022/12/30 10:14:24;;;;;;;;;;;;;;;7.42;75.21;100516.81;5025004;28;20051;-72
2022/12/30 10:17:17;;;;;;;4.07;1.92;;;;;;;7.40;75.29;100508.78;5024037;28;20671;-71
2022/12/30 10:19:55;;;;;;;4.90;1.90;;;;;;;7.40;75.63;100486.72;5024789;28;20117;-70
2022/12/30 10:22:36;;;;;;;6.40;2.00;;;;;;;7.44;75.50;100485.16;5026277;28;20041;-70
2022/12/30 10:25:18;;;;;;;8.18;1.80;;;;;;;7.45;75.82;100484.06;5021827;28;20044;-71
2022/12/30 10:27:48;;;;;;;6.57;1.95;;;;;;;7.47;75.46;100453.47;5019115;28;20030;-73
2022/12/30 10:30:20;;;;;;;8.60;2.35;;;;;;;7.49;74.95;100451.28;5027217;28;20033;-71
2022/12/30 10:32:53;;;;;;;10.05;2.10;;;;;;;7.51;75.12;100454.66;5025104;28;20042;-70
2022/12/30 10:35:29;;;;;;;5.40;1.92;;;;;;;7.51;74.71;100441.69;5019362;28;20086;-72
2022/12/30 10:38:01;;;;;;;9.80;2.70;;;;;;;7.54;74.61;100440.31;5027097;28;20025;-72
2022/12/30 10:40:52;;;;;;;7.07;1.83;;;;;;;7.55;75.10;100434.59;5024094;28;20029;-71
2022/12/30 10:43:39;;;;;;;7.45;2.20;;;;;;;7.57;75.15;100426.88;5020548;28;20040;-72
2022/12/30 10:46:17;;;;;;;6.75;1.98;;;;;;;7.60;75.20;100415.34;5017721;28;20049;-68
2022/12/30 10:48:57;;;;;;;6.15;2.53;;;;;;;7.64;74.69;100401.88;5020882;28;20045;-69
2022/12/30 10:51:24;;;;;;;9.88;2.40;;;;;;;7.65;74.77;100388.91;5022296;28;20048;-69
2022/12/30 10:53:52;;;;;;;29.15;3.13;;;;;;;7.67;74.67;100381.22;5022063;28;20040;-68
2022/12/30 10:56:30;;;;;;;6.05;1.90;;;;;;;7.68;75.20;100380.97;5023205;28;20029;-70
2022/12/30 10:59:02;;;;;;;6.50;1.90;;;;;;;7.70;75.09;100364.16;5020767;28;20065;-75
2022/12/30 11:01:32;;;;;;;9.38;2.05;;;;;;;7.71;74.90;100361.16;5021639;28;20034;-70
2022/12/30 11:03:58;;;;;;;8.55;2.00;;;;;;;7.75;75.11;100355.97;5025837;28;20204;-70
2022/12/30 11:06:35;;;;;;;14.57;2.00;;;;;;;7.77;74.61;100343.56;5019770;28;20495;-71
2022/12/30 11:09:13;;;;;;;6.38;2.25;;;;;;;7.79;74.96;100348.88;5024101;28;20821;-71
2022/12/30 11:14:43;;;;;;;12.27;2.38;;;;;;;7.81;74.52;100325.41;5029782;28;20052;-74
2022/12/30 11:17:15;;;;;;;9.82;2.17;;;;;;;7.83;74.78;100317.72;5025469;28;20037;-71
2022/12/30 11:19:48;;;;;;;7.57;2.35;;;;;;;7.84;74.40;100310.28;5022502;28;20037;-72
2022/12/30 11:22:13;;;;;;;38.60;4.55;;;;;;;7.85;74.05;100298.13;5021195;28;20029;-76
2022/12/30 11:24:45;;;;;;;29.00;5.18;;;;;;;7.87;74.69;100296.81;5023322;28;20032;-73
2022/12/30 11:27:11;;;;;;;11.77;2.03;;;;;;;7.88;74.28;100281.91;5033719;28;20040;-74
2022/12/30 11:29:36;;;;;;;8.68;2.22;;;;;;;7.89;74.48;100263.38;5021852;28;20026;-79
2022/12/30 11:32:10;;;;;;;6.82;2.15;;;;;;;7.91;73.99;100252.09;5026019;28;20037;-71
2022/12/30 11:34:38;;;;;;;9.85;2.30;;;;;;;7.92;74.13;100234.44;5008938;28;20034;-71
2022/12/30 11:37:32;;;;;;;6.25;2.05;;;;;;;7.94;74.36;100244.16;5021367;28;20046;-72
2022/12/30 11:40:26;;;;;;;7.85;2.33;;;;;;;7.96;74.40;100230.91;5015896;28;20044;-70
2022/12/30 11:43:18;;;;;;;9.63;2.47;;;;;;;7.97;73.76;100218.75;5005983;28;20486;-73
2022/12/30 11:46:14;;;;;;;8.95;2.28;;;;;;;8.00;74.20;100203.59;5009860;28;20374;-75
2022/12/30 11:48:51;;;;;;;11.60;2.33;;;;;;;8.01;73.39;100203.34;5020864;28;20503;-72
2022/12/30 11:51:27;;;;;;;7.30;1.98;;;;;;;8.04;74.00;100199.25;5023296;28;20580;-71
2022/12/30 11:54:06;;;;;;;9.50;2.50;;;;;;;8.07;74.32;100191.28;5017049;28;20041;-71
2022/12/30 11:56:32;;;;;;;20.17;3.95;;;;;;;8.08;73.77;100165.31;5015303;28;20038;-71
2022/12/30 11:59:13;;;;;;;9.63;2.00;;;;;;;8.09;73.09;100161.47;5020125;28;20037;-72
2022/12/30 12:01:44;;;;;;;9.77;2.42;;;;;;;8.12;73.41;100151.84;5021236;28;20048;-75
2022/12/30 12:04:33;;;;;;;10.60;2.80;;;;;;;8.16;73.54;100143.88;5020912;28;20049;-74
2022/12/30 12:06:59;;;;;;;7.13;1.95;;;;;;;8.16;73.43;100147.47;5017747;28;20045;-74
2022/12/30 12:10:10;;;;;;;7.45;2.25;;;;;;;8.20;73.22;100129.28;5008899;28;20362;-74
2022/12/30 12:12:49;;;;;;;10.35;2.28;;;;;;;8.21;73.77;100114.34;4996619;28;20045;-71
2022/12/30 12:15:29;;;;;;;9.90;2.38;;;;;;;8.22;73.48;100116.06;5025015;28;20104;-73
2022/12/30 12:18:50;;;;;;;5.00;1.98;;;;;;;8.26;73.18;100111.69;5029435;28;20562;-74
2022/12/30 12:21:25;;;;;;;6.82;1.95;;;;;;;8.27;73.64;100098.69;5015893;28;20487;-76
2022/12/30 12:24:26;;;;;;;7.13;2.13;;;;;;;8.30;74.00;100099.03;5022000;28;20030;-76
2022/12/30 12:27:01;;;;;;;9.75;1.98;;;;;;;8.29;74.76;100086.28;5012432;28;20054;-74
2022/12/30 12:29:27;;;;;;;9.63;2.05;;;;;;;8.29;74.38;100085.44;5029469;28;20029;-77
2022/12/30 12:32:23;;;;;;;7.95;2.28;;;;;;;8.29;74.93;100063.31;5025373;28;20465;-71
2022/12/30 12:35:14;;;;;;;6.80;1.95;;;;;;;8.28;75.75;100061.66;5018394;28;20064;-72
2022/12/30 12:38:00;;;;;;;8.43;1.98;;;;;;;8.28;75.77;100050.59;5017608;28;20052;-68